Time;durP1;ratioP1;P1;durP2;ratioP2;P2;SDS_P1;SDS_P2;PMS_P1;PMS_P2;Temp;Humidity;BMP_temperature;BMP_pressure;BME280_temperature;BME280_humidity;BME280_pressure;Samples;Min_cycle;Max_cycle;Signal;HPM_P1;HPM_P2
2022/12/26 00:01:41;;;;;;;7.40;6.70;;;11.90;99.90;;;;;;5079381;28;20270;-86
2022/12/26 00:04:07;;;;;;;8.77;7.87;;;11.80;99.90;;;;;;5079707;28;20628;-85
2022/12/26 00:06:32;;;;;;;8.23;7.40;;;11.80;99.90;;;;;;5097731;28;20164;-86
2022/12/26 00:09:01;;;;;;;8.27;7.47;;;11.90;99.90;;;;;;5080706;28;20248;-86
2022/12/26 00:11:27;;;;;;;8.27;7.20;;;11.90;99.90;;;;;;5081115;28;20184;-86
2022/12/26 00:14:04;;;;;;;9.10;8.20;;;11.90;99.90;;;;;;5081674;28;20559;-86
2022/12/26 00:16:30;;;;;;;8.80;7.80;;;11.90;99.90;;;;;;5084004;28;20183;-88
2022/12/26 00:18:56;;;;;;;9.47;8.57;;;11.90;99.90;;;;;;5079662;28;20218;-86
2022/12/26 00:21:26;;;;;;;8.87;8.07;;;12.10;99.90;;;;;;5082586;28;20206;-86
2022/12/26 00:23:54;;;;;;;8.50;7.70;;;11.90;99.90;;;;;;5092103;28;20167;-86
2022/12/26 00:26:23;;;;;;;8.90;7.90;;;11.90;99.90;;;;;;5087030;28;20178;-85
2022/12/26 00:28:49;;;;;;;8.80;8.00;;;11.90;99.90;;;;;;5082234;28;20233;-86
2022/12/26 00:31:17;;;;;;;9.00;8.10;;;11.90;99.90;;;;;;5078035;28;20176;-88
2022/12/26 00:33:44;;;;;;;8.37;7.57;;;11.90;99.90;;;;;;5082250;28;20213;-86
2022/12/26 00:36:16;;;;;;;8.50;7.70;;;11.90;99.90;;;;;;5078076;28;20708;-87
2022/12/26 00:38:43;;;;;;;8.13;6.80;;;11.90;99.90;;;;;;5095760;28;20699;-86
2022/12/26 00:41:09;;;;;;;7.53;6.83;;;11.80;99.90;;;;;;5076580;28;20183;-85
2022/12/26 00:43:35;;;;;;;7.77;6.97;;;11.90;99.90;;;;;;5077317;28;20666;-85
2022/12/26 00:46:01;;;;;;;7.73;6.90;;;11.70;99.90;;;;;;5077462;28;20176;-87
2022/12/26 00:48:27;;;;;;;7.67;6.97;;;11.80;99.90;;;;;;5077999;28;20187;-86
2022/12/26 00:50:54;;;;;;;7.83;6.93;;;11.80;99.90;;;;;;5077442;28;20681;-86
2022/12/26 00:53:20;;;;;;;7.13;6.43;;;11.90;99.90;;;;;;5077462;28;20184;-86
2022/12/26 00:55:46;;;;;;;7.97;7.17;;;11.90;99.90;;;;;;5077153;28;20190;-85
2022/12/26 00:58:12;;;;;;;8.00;7.20;;;11.90;99.90;;;;;;5076614;28;20220;-86
2022/12/26 01:00:37;;;;;;;8.80;7.90;;;11.80;99.90;;;;;;5079114;28;20678;-85
2022/12/26 01:03:06;;;;;;;8.57;7.67;;;11.80;99.90;;;;;;5095761;28;20552;-86
2022/12/26 01:05:32;;;;;;;11.17;8.73;;;11.70;99.90;;;;;;5077258;28;20183;-86
2022/12/26 01:07:58;;;;;;;9.37;8.07;;;11.80;99.90;;;;;;5076380;28;20237;-85
2022/12/26 01:10:23;;;;;;;12.03;10.07;;;11.70;99.90;;;;;;5076372;28;20183;-86
2022/12/26 01:12:49;;;;;;;14.03;11.50;;;11.70;99.90;;;;;;5094927;28;20531;-86
2022/12/26 01:15:15;;;;;;;15.70;12.17;;;11.80;99.90;;;;;;5076457;28;20242;-85
2022/12/26 01:17:40;;;;;;;18.97;14.63;;;11.70;99.90;;;;;;5093527;28;20188;-85
2022/12/26 01:20:06;;;;;;;17.03;13.87;;;11.90;99.90;;;;;;5076430;28;20178;-86
2022/12/26 01:22:32;;;;;;;18.53;14.20;;;11.80;99.90;;;;;;5075892;28;20274;-86
2022/12/26 01:24:58;;;;;;;17.03;14.00;;;11.80;99.90;;;;;;5092577;28;20179;-86
2022/12/26 01:27:25;;;;;;;17.17;14.17;;;11.70;99.90;;;;;;5079241;28;20180;-83
2022/12/26 01:29:54;;;;;;;16.90;13.40;;;11.80;99.90;;;;;;5076328;28;20171;-86
2022/12/26 01:32:20;;;;;;;16.10;12.77;;;11.80;99.90;;;;;;5076028;28;20222;-86
2022/12/26 01:34:46;;;;;;;14.77;12.03;;;11.70;99.90;;;;;;5076231;28;20639;-85
2022/12/26 01:37:13;;;;;;;12.27;10.97;;;11.70;99.90;;;;;;5078253;28;20175;-85
2022/12/26 01:39:38;;;;;;;12.27;10.93;;;11.80;99.90;;;;;;5081475;28;20309;-85
2022/12/26 01:42:16;;;;;;;11.70;10.20;;;11.60;99.90;;;;;;5077557;28;20279;-85
2022/12/26 01:45:02;;;;;;;11.40;9.97;;;11.80;99.90;;;;;;5094356;28;20210;-85
2022/12/26 01:47:48;;;;;;;12.53;10.43;;;11.70;99.90;;;;;;5073197;28;20553;-87
2022/12/26 01:50:40;;;;;;;11.07;9.80;;;11.60;99.90;;;;;;5092375;28;20306;-87
2022/12/26 01:53:28;;;;;;;8.87;7.97;;;11.60;99.90;;;;;;5075388;28;20594;-85
2022/12/26 01:56:03;;;;;;;9.57;8.43;;;11.60;99.90;;;;;;5076028;28;20180;-86
2022/12/26 01:58:33;;;;;;;9.23;8.27;;;11.70;99.90;;;;;;5080433;28;20301;-86
2022/12/26 02:01:02;;;;;;;8.60;7.67;;;11.80;99.90;;;;;;5080126;28;20190;-85
2022/12/26 02:06:13;;;;;;;8.43;7.53;;;11.70;99.90;;;;;;5096073;28;20178;-85
2022/12/26 02:08:39;;;;;;;7.30;6.57;;;11.70;99.90;;;;;;5075841;28;20203;-86
2022/12/26 02:11:31;;;;;;;7.30;6.60;;;11.80;99.90;;;;;;5076617;28;20180;-86
2022/12/26 02:13:57;;;;;;;6.87;6.17;;;11.60;99.90;;;;;;5073114;28;20184;-86
2022/12/26 02:16:24;;;;;;;6.67;5.83;;;11.50;99.90;;;;;;5077829;28;20669;-86
2022/12/26 02:18:50;;;;;;;6.87;5.53;;;11.50;99.90;;;;;;5081650;28;20224;-85
2022/12/26 02:21:35;;;;;;;7.80;5.67;;;11.40;99.90;;;;;;5083038;28;20428;-86
2022/12/26 02:24:09;;;;;;;5.17;4.67;;;11.40;99.90;;;;;;5084086;28;20195;-84
2022/12/26 02:27:13;;;;;;;5.50;4.90;;;11.30;99.90;;;;;;5102638;28;20198;-85
2022/12/26 02:30:35;;;;;;;6.07;5.20;;;11.30;99.90;;;;;;5097079;28;20183;-85
2022/12/26 02:33:16;;;;;;;6.03;4.70;;;11.20;99.90;;;;;;5016277;28;20287;-85
2022/12/26 02:36:11;;;;;;;4.70;3.80;;;11.10;99.90;;;;;;5087277;28;20233;-86
2022/12/26 02:39:11;;;;;;;4.83;4.00;;;11.00;99.90;;;;;;5026014;28;20225;-87
2022/12/26 02:42:15;;;;;;;4.93;4.30;;;11.00;99.90;;;;;;5076346;28;20196;-85
2022/12/26 02:48:00;;;;;;;4.60;3.63;;;11.00;99.90;;;;;;5072750;28;20183;-85
2022/12/26 03:14:41;;;;;;;5.50;3.13;;;11.00;99.90;;;;;;5097450;28;20237;-86
2022/12/26 03:17:20;;;;;;;3.73;2.50;;;11.00;99.90;;;;;;5077940;28;20241;-86
2022/12/26 03:20:22;;;;;;;3.47;2.47;;;11.10;99.90;;;;;;5098720;28;20621;-86
2022/12/26 03:22:58;;;;;;;3.40;2.73;;;11.10;99.90;;;;;;5110095;28;20194;-84
2022/12/26 03:28:29;;;;;;;4.00;3.50;;;11.10;99.90;;;;;;5098257;28;20620;-86
2022/12/26 03:30:58;;;;;;;4.70;3.63;;;11.20;99.90;;;;;;5091176;28;20886;-86
2022/12/26 03:36:38;;;;;;;4.83;3.83;;;11.30;99.90;;;;;;5097371;28;20726;-86
2022/12/26 04:19:22;;;;;;;5.20;4.17;;;11.30;99.90;;;;;;5078521;28;20223;-87
2022/12/26 04:44:23;;;;;;;4.00;3.10;;;11.30;99.90;;;;;;5095756;28;20195;-86
2022/12/26 04:46:51;;;;;;;4.20;3.20;;;11.30;99.90;;;;;;5095104;28;20258;-87
2022/12/26 04:52:05;;;;;;;4.33;2.80;;;11.40;99.90;;;;;;5096311;28;20261;-87
2022/12/26 04:54:31;;;;;;;4.13;2.73;;;11.40;99.90;;;;;;5077047;28;20183;-87
2022/12/26 04:56:57;;;;;;;3.87;3.10;;;11.30;99.90;;;;;;5077080;28;20187;-86
2022/12/26 04:59:23;;;;;;;4.20;2.60;;;11.30;99.90;;;;;;5077448;28;20343;-86
2022/12/26 05:10:16;;;;;;;3.47;2.60;;;11.20;99.90;;;;;;5099583;28;20187;-87
2022/12/26 05:12:41;;;;;;;3.80;2.13;;;11.30;99.90;;;;;;5098570;28;20187;-87
2022/12/26 05:15:07;;;;;;;3.10;2.50;;;11.20;99.90;;;;;;5078045;28;20545;-87
2022/12/26 05:28:42;;;;;;;2.77;2.17;;;11.40;99.90;;;;;;5095858;28;20186;-87
2022/12/26 05:31:09;;;;;;;2.40;2.07;;;11.50;99.90;;;;;;5076564;28;20270;-85
2022/12/26 05:36:22;;;;;;;2.37;1.80;;;11.60;99.90;;;;;;5103476;28;20186;-85
2022/12/26 05:38:48;;;;;;;3.87;2.43;;;11.60;99.90;;;;;;5108398;28;20222;-87
2022/12/26 05:41:14;;;;;;;2.30;1.90;;;11.70;99.90;;;;;;5085729;28;20179;-88
2022/12/26 05:43:41;;;;;;;2.87;2.20;;;11.40;99.90;;;;;;5078407;28;20189;-87
2022/12/26 05:46:07;;;;;;;3.13;2.23;;;11.60;99.90;;;;;;5076712;28;20182;-87
2022/12/26 05:48:33;;;;;;;5.30;2.50;;;11.50;99.90;;;;;;5075730;28;20706;-85
2022/12/26 05:50:59;;;;;;;2.73;1.87;;;11.40;99.90;;;;;;5076106;28;20226;-85
2022/12/26 05:53:27;;;;;;;3.80;2.13;;;11.30;99.90;;;;;;5078981;28;20270;-85
2022/12/26 05:55:53;;;;;;;3.03;1.80;;;11.30;99.90;;;;;;5076208;28;20276;-85
2022/12/26 05:58:19;;;;;;;3.53;2.07;;;11.40;99.90;;;;;;5075497;28;20306;-85
2022/12/26 06:00:45;;;;;;;3.50;1.90;;;11.50;99.90;;;;;;5075596;28;20179;-85
2022/12/26 06:03:11;;;;;;;2.70;1.70;;;11.50;99.90;;;;;;5076111;28;20190;-87
2022/12/26 06:05:36;;;;;;;2.30;1.80;;;11.50;99.90;;;;;;5076095;28;20183;-86
2022/12/26 06:08:03;;;;;;;3.30;1.60;;;11.50;99.90;;;;;;5076250;28;20317;-86
2022/12/26 06:10:28;;;;;;;2.27;1.87;;;11.50;99.90;;;;;;5076194;28;20229;-86
2022/12/26 06:12:55;;;;;;;2.20;1.33;;;11.40;99.90;;;;;;5079593;28;20270;-85
2022/12/26 06:15:21;;;;;;;2.73;1.73;;;11.60;99.90;;;;;;5097081;28;20180;-87
2022/12/26 06:17:47;;;;;;;2.17;1.57;;;11.40;99.90;;;;;;5079551;28;20183;-86
2022/12/26 06:20:12;;;;;;;2.63;1.50;;;11.40;99.90;;;;;;5097559;28;20537;-86
2022/12/26 06:22:38;;;;;;;2.20;1.57;;;11.40;99.90;;;;;;5079724;28;20227;-86
2022/12/26 06:25:04;;;;;;;1.90;1.33;;;11.50;99.90;;;;;;5079610;28;20184;-86
2022/12/26 06:27:29;;;;;;;2.93;1.60;;;11.50;99.90;;;;;;5096647;28;20240;-86
2022/12/26 06:29:55;;;;;;;2.33;1.50;;;11.60;99.90;;;;;;5079104;28;20591;-86
2022/12/26 06:32:21;;;;;;;1.57;1.30;;;11.70;99.90;;;;;;5080356;28;20239;-87
2022/12/26 06:34:47;;;;;;;3.53;1.30;;;11.40;99.90;;;;;;5079766;28;20183;-87
2022/12/26 06:37:12;;;;;;;2.13;1.40;;;11.40;99.90;;;;;;5079294;28;20675;-85
2022/12/26 06:39:38;;;;;;;3.73;1.43;;;11.40;99.90;;;;;;5078999;28;20283;-86
2022/12/26 06:42:04;;;;;;;1.50;1.10;;;11.40;99.90;;;;;;5079163;28;20263;-85
2022/12/26 06:44:30;;;;;;;2.40;1.33;;;11.40;99.90;;;;;;5095402;28;20184;-84
2022/12/26 06:46:55;;;;;;;2.10;1.33;;;11.50;99.90;;;;;;5079163;28;20190;-86
2022/12/26 06:49:21;;;;;;;7.43;1.83;;;11.40;99.90;;;;;;5088900;28;20180;-87
2022/12/26 06:51:47;;;;;;;3.23;1.57;;;11.30;99.90;;;;;;5075982;28;20676;-87
2022/12/26 06:54:13;;;;;;;2.40;1.30;;;11.30;99.90;;;;;;5096525;28;20215;-88
2022/12/26 06:56:38;;;;;;;4.03;1.40;;;11.30;99.90;;;;;;5081217;28;20218;-86
2022/12/26 06:59:05;;;;;;;2.10;1.07;;;11.30;99.90;;;;;;5077710;28;20220;-85
2022/12/26 07:01:33;;;;;;;3.67;1.57;;;11.30;99.90;;;;;;5079297;28;20190;-85
2022/12/26 07:03:59;;;;;;;1.67;1.20;;;11.40;99.90;;;;;;5081341;28;20196;-85
2022/12/26 07:06:33;;;;;;;3.10;1.37;;;11.20;99.90;;;;;;5085813;28;20203;-85
2022/12/26 07:09:02;;;;;;;2.73;1.33;;;11.10;99.90;;;;;;5099430;28;20188;-87
2022/12/26 07:11:31;;;;;;;2.03;1.00;;;11.20;99.90;;;;;;5079760;28;20175;-87
2022/12/26 07:13:57;;;;;;;1.77;1.10;;;11.10;99.90;;;;;;5079025;28;20175;-85
2022/12/26 07:16:25;;;;;;;2.83;1.23;;;11.00;99.90;;;;;;5084784;28;20266;-87
2022/12/26 07:18:53;;;;;;;3.60;1.13;;;11.10;99.90;;;;;;5086631;28;20215;-87
2022/12/26 07:21:20;;;;;;;3.53;1.53;;;11.00;99.90;;;;;;5079288;28;20206;-86
2022/12/26 07:23:55;;;;;;;2.03;1.20;;;11.30;99.90;;;;;;5078905;28;20198;-85
2022/12/26 07:26:22;;;;;;;3.47;1.43;;;11.10;99.90;;;;;;5085450;28;20290;-88
2022/12/26 07:28:48;;;;;;;2.60;1.00;;;11.00;99.90;;;;;;5079986;28;20210;-88
2022/12/26 07:31:18;;;;;;;3.17;1.27;;;11.00;99.90;;;;;;5098455;28;20249;-87
2022/12/26 07:33:52;;;;;;;2.67;1.10;;;11.00;99.90;;;;;;5080328;28;20187;-86
2022/12/26 07:36:19;;;;;;;2.80;1.27;;;11.00;99.90;;;;;;5079164;28;20190;-86
2022/12/26 07:38:45;;;;;;;3.13;1.20;;;11.00;99.90;;;;;;5080034;28;20219;-86
2022/12/26 07:43:56;;;;;;;4.20;1.57;;;11.10;99.90;;;;;;5098885;28;20206;-84
2022/12/26 07:46:23;;;;;;;4.57;1.30;;;11.40;99.90;;;;;;5057122;28;20714;-85
2022/12/26 07:48:49;;;;;;;3.40;1.10;;;11.10;99.90;;;;;;5108910;28;20779;-87
2022/12/26 07:51:16;;;;;;;4.33;1.40;;;11.10;99.90;;;;;;5093780;28;20963;-84
2022/12/26 07:53:41;;;;;;;4.33;1.40;;;11.20;99.90;;;;;;5087100;28;20192;-84
2022/12/26 07:56:07;;;;;;;2.23;1.10;;;11.20;99.90;;;;;;5086000;28;20252;-85
2022/12/26 07:58:36;;;;;;;4.73;1.30;;;11.10;99.90;;;;;;5086846;28;20211;-87
2022/12/26 08:01:05;;;;;;;3.27;1.20;;;11.30;99.90;;;;;;5080670;28;20179;-86
2022/12/26 08:03:31;;;;;;;2.97;1.40;;;11.00;99.90;;;;;;5079063;28;20642;-86
2022/12/26 08:05:58;;;;;;;3.27;1.40;;;11.10;99.90;;;;;;5079028;28;20180;-85
2022/12/26 08:08:24;;;;;;;4.83;1.33;;;11.10;99.90;;;;;;5078822;28;20184;-86
2022/12/26 08:11:04;;;;;;;2.83;1.37;;;11.10;99.90;;;;;;5106585;28;20229;-86
2022/12/26 08:13:31;;;;;;;4.73;1.37;;;11.10;99.90;;;;;;5093498;28;20715;-85
2022/12/26 08:15:58;;;;;;;3.77;1.33;;;11.20;99.90;;;;;;5102859;28;20233;-87
2022/12/26 08:18:24;;;;;;;4.63;1.10;;;11.20;99.90;;;;;;5083241;28;20562;-87
2022/12/26 08:20:50;;;;;;;4.87;1.50;;;11.30;99.90;;;;;;5079749;28;20199;-86
2022/12/26 08:23:16;;;;;;;5.23;1.43;;;11.40;99.90;;;;;;5078202;28;20295;-86
2022/12/26 08:25:41;;;;;;;4.13;1.43;;;11.40;99.90;;;;;;5077029;28;20187;-87
2022/12/26 08:28:07;;;;;;;2.17;1.07;;;11.50;99.90;;;;;;5077470;28;20602;-86
2022/12/26 08:30:33;;;;;;;3.40;1.17;;;11.40;99.90;;;;;;5078341;28;20180;-87
2022/12/26 08:32:58;;;;;;;5.73;2.40;;;11.40;99.90;;;;;;5078880;28;20647;-87
2022/12/26 08:35:24;;;;;;;3.40;1.50;;;11.50;99.90;;;;;;5095504;28;20176;-86
2022/12/26 08:37:50;;;;;;;4.53;1.33;;;11.30;99.90;;;;;;5095310;28;20230;-87
2022/12/26 08:40:16;;;;;;;3.07;1.13;;;11.20;99.90;;;;;;5077008;28;20631;-86
2022/12/26 08:42:41;;;;;;;4.33;1.53;;;11.30;99.90;;;;;;5077453;28;20283;-85
2022/12/26 08:45:08;;;;;;;4.77;1.60;;;11.40;99.90;;;;;;5076976;28;20175;-88
2022/12/26 08:47:34;;;;;;;2.97;1.37;;;11.30;99.90;;;;;;5077684;28;20245;-87
2022/12/26 08:49:59;;;;;;;6.23;1.53;;;11.40;99.90;;;;;;5079126;28;20231;-87
2022/12/26 08:52:25;;;;;;;4.20;1.53;;;11.30;99.90;;;;;;5077398;28;20549;-87
2022/12/26 08:54:51;;;;;;;3.30;1.17;;;11.20;99.90;;;;;;5078535;28;20203;-87
2022/12/26 08:57:16;;;;;;;3.93;1.50;;;11.60;99.90;;;;;;5082905;28;20254;-87
2022/12/26 08:59:42;;;;;;;4.23;1.30;;;11.50;99.90;;;;;;5093661;28;20222;-87
2022/12/26 09:02:10;;;;;;;10.10;6.67;;;11.30;99.90;;;;;;5076869;28;20229;-87
2022/12/26 09:04:36;;;;;;;5.13;1.43;;;11.40;99.90;;;;;;5076945;28;20559;-88
2022/12/26 09:07:02;;;;;;;5.10;1.20;;;11.40;99.90;;;;;;5077147;28;20187;-87
2022/12/26 09:09:28;;;;;;;4.10;1.73;;;11.40;99.90;;;;;;5081289;28;20187;-87
2022/12/26 09:11:54;;;;;;;4.50;1.90;;;11.30;99.90;;;;;;5096707;28;20191;-87
2022/12/26 09:14:19;;;;;;;4.50;1.70;;;11.20;99.90;;;;;;5077107;28;20187;-87
2022/12/26 09:16:46;;;;;;;5.57;1.67;;;11.40;99.90;;;;;;5077411;28;20184;-87
2022/12/26 09:19:13;;;;;;;5.43;1.60;;;11.30;99.90;;;;;;5077088;28;20310;-87
2022/12/26 09:21:40;;;;;;;6.07;1.60;;;11.40;99.90;;;;;;5095331;28;20203;-86
2022/12/26 09:24:12;;;;;;;3.47;1.50;;;11.50;99.90;;;;;;5076677;28;20647;-88
2022/12/26 09:26:38;;;;;;;3.33;1.40;;;11.40;99.90;;;;;;5077631;28;20179;-85
2022/12/26 09:29:04;;;;;;;6.20;1.77;;;11.40;99.90;;;;;;5093179;28;20197;-87
2022/12/26 09:31:32;;;;;;;4.33;1.77;;;11.40;99.90;;;;;;5076326;28;20199;-87
2022/12/26 09:33:59;;;;;;;5.87;1.60;;;11.50;99.90;;;;;;5078520;28;20189;-87
2022/12/26 09:36:28;;;;;;;6.83;2.03;;;11.50;99.90;;;;;;5077122;28;20543;-87
2022/12/26 09:38:56;;;;;;;6.20;1.30;;;11.70;99.90;;;;;;5077257;28;20615;-86
2022/12/26 09:42:02;;;;;;;5.50;2.00;;;11.50;99.90;;;;;;5078163;28;20237;-87
2022/12/26 09:44:53;;;;;;;6.37;1.70;;;11.40;99.90;;;;;;5086248;28;20187;-87
2022/12/26 09:47:40;;;;;;;3.57;1.17;;;11.50;99.90;;;;;;5104686;28;20179;-88
2022/12/26 09:50:11;;;;;;;3.30;1.27;;;11.70;99.90;;;;;;5080219;28;20290;-87
2022/12/26 09:52:47;;;;;;;4.30;1.50;;;11.60;99.90;;;;;;5077795;28;20237;-85
2022/12/26 09:55:31;;;;;;;5.27;1.30;;;11.50;99.90;;;;;;5093561;28;20269;-87
2022/12/26 09:58:03;;;;;;;4.53;1.47;;;11.50;99.90;;;;;;5073113;28;20198;-87
2022/12/26 10:00:35;;;;;;;6.23;1.53;;;11.50;99.90;;;;;;5076937;28;20190;-86
2022/12/26 10:03:02;;;;;;;5.60;1.60;;;11.50;99.90;;;;;;5076708;28;20184;-87
2022/12/26 10:05:40;;;;;;;6.40;1.67;;;11.50;99.90;;;;;;5076364;28;20179;-87
2022/12/26 10:08:26;;;;;;;3.47;1.73;;;11.40;99.90;;;;;;5097142;28;20172;-86
2022/12/26 10:11:01;;;;;;;6.20;2.00;;;11.40;99.90;;;;;;5078967;28;20632;-88
2022/12/26 10:13:46;;;;;;;5.60;1.83;;;11.40;99.90;;;;;;5078217;28;20523;-88
2022/12/26 10:16:22;;;;;;;7.03;2.20;;;11.40;99.90;;;;;;5076820;28;20191;-86
2022/12/26 10:18:51;;;;;;;5.50;1.80;;;11.40;99.90;;;;;;5093337;28;20234;-87
2022/12/26 10:21:26;;;;;;;5.20;1.90;;;11.30;99.90;;;;;;5076440;28;20235;-85
2022/12/26 10:24:17;;;;;;;4.83;1.67;;;11.40;99.90;;;;;;5077217;28;20222;-85
2022/12/26 10:26:51;;;;;;;3.87;1.93;;;11.20;99.90;;;;;;5074321;28;20514;-87
2022/12/26 10:29:28;;;;;;;3.67;1.80;;;11.00;99.90;;;;;;5100165;28;20175;-86
2022/12/26 10:32:06;;;;;;;4.13;1.30;;;11.00;99.90;;;;;;5082025;28;20198;-87
2022/12/26 10:34:43;;;;;;;4.93;2.00;;;10.90;99.90;;;;;;5079289;28;20221;-87
2022/12/26 10:37:34;;;;;;;6.23;1.40;;;11.00;99.90;;;;;;5078976;28;20206;-86
2022/12/26 10:40:18;;;;;;;4.93;1.63;;;11.00;99.90;;;;;;5083669;28;20207;-86
2022/12/26 10:42:49;;;;;;;4.63;1.30;;;11.00;99.90;;;;;;5099417;28;20179;-88
2022/12/26 10:45:18;;;;;;;4.33;1.90;;;11.00;99.90;;;;;;5091400;28;20163;-87
2022/12/26 10:47:46;;;;;;;7.80;1.60;;;11.10;99.90;;;;;;5094253;28;20187;-86
2022/12/26 10:50:23;;;;;;;6.23;1.93;;;11.10;99.90;;;;;;5085369;28;20204;-87
2022/12/26 10:52:49;;;;;;;4.23;1.50;;;11.00;99.90;;;;;;5077822;28;20567;-86
2022/12/26 10:55:18;;;;;;;6.17;1.77;;;11.00;99.90;;;;;;5096301;28;20237;-88
2022/12/26 10:57:49;;;;;;;5.67;2.27;;;11.00;99.90;;;;;;5078683;28;20199;-88
2022/12/26 11:00:21;;;;;;;5.70;1.70;;;11.10;99.90;;;;;;5083042;28;20215;-87
2022/12/26 11:03:08;;;;;;;5.37;1.60;;;11.00;99.90;;;;;;5089383;28;20529;-87
2022/12/26 11:05:37;;;;;;;6.80;1.80;;;11.00;99.90;;;;;;5080940;28;20308;-87
2022/12/26 11:08:12;;;;;;;4.67;1.47;;;11.00;99.90;;;;;;5081487;28;20266;-88
2022/12/26 11:10:37;;;;;;;5.20;1.50;;;11.00;99.90;;;;;;5078330;28;20650;-87
2022/12/26 11:13:16;;;;;;;5.00;1.40;;;10.90;99.90;;;;;;5077904;28;20176;-88
2022/12/26 11:15:52;;;;;;;5.70;1.67;;;10.60;99.90;;;;;;5082526;28;20184;-86
2022/12/26 11:18:46;;;;;;;6.60;1.93;;;10.60;99.90;;;;;;5082543;28;20549;-86
2022/12/26 11:21:12;;;;;;;7.27;2.40;;;10.70;99.90;;;;;;5078737;28;20206;-87
2022/12/26 11:23:38;;;;;;;9.53;4.00;;;10.60;99.30;;;;;;5075599;28;20551;-87
2022/12/26 11:26:24;;;;;;;8.40;3.50;;;10.50;94.60;;;;;;5074527;28;20212;-87
2022/12/26 11:29:28;;;;;;;6.57;2.10;;;10.40;92.60;;;;;;5078894;28;20184;-87
2022/12/26 11:32:01;;;;;;;3.33;1.20;;;10.40;90.40;;;;;;5079243;28;20172;-85
2022/12/26 11:34:33;;;;;;;4.90;1.30;;;10.40;89.50;;;;;;5078136;28;20213;-86
2022/12/26 11:37:00;;;;;;;4.30;1.30;;;10.40;86.20;;;;;;5097499;28;20541;-87
2022/12/26 11:39:38;;;;;;;6.47;1.50;;;10.40;80.10;;;;;;5095744;28;20584;-86
2022/12/26 11:42:17;;;;;;;4.00;1.70;;;10.30;76.30;;;;;;5079112;28;20182;-86
2022/12/26 11:44:45;;;;;;;4.33;1.30;;;10.40;72.30;;;;;;5078337;28;20183;-85
2022/12/26 11:47:14;;;;;;;5.33;1.33;;;10.40;69.70;;;;;;5097735;28;20183;-86
2022/12/26 11:50:03;;;;;;;6.77;2.20;;;10.40;67.40;;;;;;5083266;28;20268;-84
2022/12/26 11:52:37;;;;;;;5.13;2.13;;;10.10;69.10;;;;;;5082372;28;20286;-86
2022/12/26 11:55:25;;;;;;;4.33;1.63;;;9.90;74.20;;;;;;5078444;28;20175;-86
2022/12/26 11:58:09;;;;;;;8.47;1.83;;;10.10;77.10;;;;;;5080415;28;20266;-85
2022/12/26 12:00:42;;;;;;;8.60;2.10;;;9.90;77.80;;;;;;5074741;28;20195;-85
2022/12/26 12:03:26;;;;;;;8.00;2.23;;;10.00;73.20;;;;;;5075385;28;20294;-85
2022/12/26 12:05:56;;;;;;;5.60;1.83;;;9.90;74.30;;;;;;5080978;28;20291;-87
2022/12/26 12:08:30;;;;;;;3.10;1.30;;;10.10;75.60;;;;;;5078540;28;20176;-86
2022/12/26 12:11:31;;;;;;;6.50;2.83;;;10.00;75.50;;;;;;5074803;28;20271;-85
2022/12/26 12:14:15;;;;;;;6.33;2.47;;;10.10;77.60;;;;;;5072434;28;20191;-85
2022/12/26 12:16:59;;;;;;;6.80;2.00;;;10.20;84.90;;;;;;5074700;28;20192;-87
2022/12/26 12:19:37;;;;;;;7.33;2.50;;;10.20;87.70;;;;;;5104433;28;20211;-84
2022/12/26 12:22:03;;;;;;;5.60;1.50;;;10.20;88.70;;;;;;5092124;28;20288;-85
2022/12/26 12:24:43;;;;;;;7.27;1.90;;;9.90;76.40;;;;;;5111102;28;20193;-84
2022/12/26 12:27:19;;;;;;;8.57;2.30;;;9.90;79.60;;;;;;5095891;28;20183;-86
2022/12/26 12:30:15;;;;;;;4.03;1.63;;;9.90;69.50;;;;;;5085419;28;20183;-87
2022/12/26 12:33:00;;;;;;;7.47;2.10;;;9.80;62.60;;;;;;5100641;28;20236;-85
2022/12/26 12:35:57;;;;;;;8.80;2.47;;;9.90;63.40;;;;;;5079042;28;20179;-86
2022/12/26 12:38:30;;;;;;;7.60;2.10;;;9.90;62.70;;;;;;5094826;28;20253;-86
2022/12/26 12:41:47;;;;;;;9.57;2.27;;;9.80;64.40;;;;;;5081654;28;20230;-86
2022/12/26 12:44:20;;;;;;;8.63;2.17;;;9.80;59.60;;;;;;5042328;28;20226;-86
2022/12/26 12:47:18;;;;;;;7.83;2.20;;;9.70;61.80;;;;;;5077408;28;20182;-87
2022/12/26 12:50:20;;;;;;;8.23;1.90;;;9.70;63.50;;;;;;5072122;28;20176;-85
2022/12/26 12:53:06;;;;;;;10.13;1.97;;;9.60;58.40;;;;;;5095406;28;20245;-85
2022/12/26 12:55:57;;;;;;;9.53;2.30;;;9.60;60.70;;;;;;5084303;28;20507;-86
2022/12/26 12:58:34;;;;;;;7.03;2.20;;;9.50;59.90;;;;;;5105199;28;20192;-86
2022/12/26 13:01:12;;;;;;;8.13;2.80;;;9.50;60.10;;;;;;5077794;28;20188;-85
2022/12/26 13:03:49;;;;;;;10.80;2.70;;;9.50;60.00;;;;;;5080631;28;20631;-87
2022/12/26 13:06:26;;;;;;;9.43;2.17;;;9.60;59.50;;;;;;5076889;28;20271;-84
2022/12/26 13:09:05;;;;;;;10.37;2.00;;;9.60;57.10;;;;;;5079294;28;20188;-85
2022/12/26 13:11:38;;;;;;;9.03;2.47;;;9.40;56.60;;;;;;5076840;28;20179;-85
2022/12/26 13:14:38;;;;;;;7.60;2.33;;;9.40;60.90;;;;;;5078346;28;20180;-86
2022/12/26 13:17:16;;;;;;;9.17;2.17;;;9.40;59.70;;;;;;5063253;28;20267;-86
2022/12/26 13:20:00;;;;;;;6.77;2.17;;;9.40;54.30;;;;;;5085668;28;20699;-85
2022/12/26 13:25:35;;;;;;;9.20;2.40;;;9.20;53.50;;;;;;5090357;28;20545;-86
2022/12/26 13:28:08;;;;;;;9.43;2.00;;;9.00;54.60;;;;;;5080026;28;20182;-86
2022/12/26 13:30:35;;;;;;;9.90;2.17;;;9.20;56.30;;;;;;5078603;28;20693;-85
2022/12/26 13:33:03;;;;;;;6.30;2.20;;;9.20;57.30;;;;;;5084416;28;20190;-83
2022/12/26 13:35:55;;;;;;;10.60;2.67;;;9.20;57.00;;;;;;5097198;28;20267;-86
2022/12/26 13:38:23;;;;;;;8.53;2.87;;;9.10;56.80;;;;;;5081519;28;20207;-85
2022/12/26 13:43:53;;;;;;;8.80;2.80;;;9.20;56.80;;;;;;5096694;28;20183;-87
2022/12/26 13:43:59;;;;;;;6.50;2.00;;;9.30;55.40;;;;;;5099683;28;20632;-85
2022/12/26 13:46:52;;;;;;;8.80;2.40;;;9.00;49.90;;;;;;5082882;28;20274;-86
2022/12/26 13:49:28;;;;;;;7.30;1.80;;;9.00;50.70;;;;;;5083155;28;20260;-84
2022/12/26 13:52:31;;;;;;;5.83;1.80;;;8.80;47.80;;;;;;5089385;28;20672;-85
2022/12/26 13:55:06;;;;;;;10.10;2.30;;;8.70;47.00;;;;;;5074465;28;20183;-85
2022/12/26 13:57:38;;;;;;;7.07;2.53;;;8.60;46.70;;;;;;5073780;28;20176;-86
2022/12/26 14:00:15;;;;;;;11.30;3.33;;;8.50;46.50;;;;;;5073674;28;20215;-85
2022/12/26 14:03:12;;;;;;;9.27;1.97;;;8.50;47.20;;;;;;5093121;28;20213;-86
2022/12/26 14:05:47;;;;;;;10.77;2.20;;;8.50;47.90;;;;;;5080661;28;20183;-85
2022/12/26 14:08:40;;;;;;;8.23;2.30;;;8.70;49.20;;;;;;5075208;28;20175;-86
2022/12/26 14:11:41;;;;;;;6.77;2.50;;;8.80;46.70;;;;;;5097793;28;20186;-86
2022/12/26 14:14:37;;;;;;;7.17;2.27;;;8.70;45.10;;;;;;5061182;28;20183;-86
2022/12/26 14:17:15;;;;;;;9.73;2.30;;;8.70;46.10;;;;;;5078424;28;20187;-85
2022/12/26 14:19:45;;;;;;;10.23;2.20;;;8.60;47.50;;;;;;5075741;28;20223;-87
2022/12/26 14:22:21;;;;;;;6.07;2.13;;;8.50;47.70;;;;;;5076123;28;20249;-84
2022/12/26 14:24:59;;;;;;;6.73;2.30;;;8.50;53.60;;;;;;5077519;28;20643;-86
2022/12/26 14:27:37;;;;;;;11.53;3.00;;;8.60;51.90;;;;;;5075916;28;20190;-85
2022/12/26 14:30:22;;;;;;;9.73;3.90;;;8.60;52.40;;;;;;5093594;28;20236;-85
2022/12/26 14:33:33;;;;;;;9.73;3.40;;;8.70;50.60;;;;;;5082314;28;20195;-86
2022/12/26 14:36:35;;;;;;;10.10;2.73;;;8.70;50.20;;;;;;5033467;28;20642;-87
2022/12/26 14:39:27;;;;;;;7.80;2.50;;;8.70;46.00;;;;;;5080414;28;20343;-86
2022/12/26 14:45:00;;;;;;;8.57;2.23;;;8.40;47.30;;;;;;5105782;28;20665;-86
2022/12/26 14:47:45;;;;;;;8.77;1.53;;;8.30;49.00;;;;;;5085529;28;20217;-87
2022/12/26 14:50:36;;;;;;;7.30;1.90;;;8.20;30.20;;;;;;5080604;28;20196;-87
2022/12/26 14:53:22;;;;;;;7.97;1.93;;;8.10;19.50;;;;;;5081492;28;20270;-84
2022/12/26 14:55:52;;;;;;;7.80;2.03;;;8.10;18.50;;;;;;5078603;28;21109;-86
2022/12/26 14:58:30;;;;;;;7.70;2.40;;;8.00;9.60;;;;;;5081138;28;20179;-85
2022/12/26 15:01:19;;;;;;;6.10;1.50;;;7.90;2.60;;;;;;5078234;28;20180;-86
2022/12/26 15:03:58;;;;;;;4.10;1.40;;;7.90;1.00;;;;;;5082214;28;20180;-86
2022/12/26 15:07:02;;;;;;;7.63;1.70;;;7.80;1.00;;;;;;5094031;28;20275;-85
2022/12/26 15:09:42;;;;;;;5.30;1.37;;;7.70;1.00;;;;;;4999098;28;20178;-85
2022/12/26 15:12:45;;;;;;;7.47;1.83;;;7.70;1.00;;;;;;5087591;28;20600;-85
2022/12/26 15:15:36;;;;;;;6.80;1.60;;;7.80;1.00;;;;;;5098871;28;20197;-85
2022/12/26 15:18:24;;;;;;;5.93;1.40;;;7.80;1.00;;;;;;5079294;28;20267;-87
2022/12/26 15:21:06;;;;;;;4.33;1.63;;;7.80;1.00;;;;;;5076082;28;20211;-87
2022/12/26 15:23:59;;;;;;;8.83;1.73;;;7.80;1.00;;;;;;5072778;28;20199;-84
2022/12/26 15:26:54;;;;;;;6.90;2.40;;;7.70;1.00;;;;;;5096242;28;20179;-85
2022/12/26 15:29:55;;;;;;;7.63;2.47;;;7.60;1.00;;;;;;5026143;28;20231;-87
2022/12/26 15:32:35;;;;;;;10.07;2.77;;;7.70;1.00;;;;;;5100433;28;20533;-87
2022/12/26 15:35:20;;;;;;;7.63;2.40;;;7.80;1.00;;;;;;5077178;28;20233;-86
2022/12/26 15:38:09;;;;;;;8.27;2.80;;;7.70;1.00;;;;;;5079383;28;20557;-86